Terminal Aerodrome Forecast
Issued by NWS Duluth, MN

Home | Current Version | Previous Version | Graphics & Text | Print | Product List | Glossary On
Versions: 1 2 3 4 5 6 7 8 9 10 11 12 13 14 15
740
FTUS43 KDLH 131733
TAFDLH
TAF
KDLH 131733Z 1318/1418 25006KT P6SM SKC
     FM132200 18005KT P6SM SKC
     FM140800 15009KT P6SM BKN150
     FM141400 15009KT P6SM OVC025
     FM141500 16010KT P6SM VCSH OVC025 PROB30 1415/1418 3SM -SN
      OVC015=

USA.gov is the U.S. government's official web portal to all federal, state and local government web resources and services.